Date,TemperatureHighF,TemperatureAvgF,TemperatureLowF,DewpointHighF,DewpointAvgF,DewpointLowF,HumidityHigh,HumidityAvg,HumidityLow,PressureMaxIn,PressureMinIn,WindSpeedMaxMPH,WindSpeedAvgMPH,GustSpeedMaxMPH,PrecipitationSumIn
2013-3-1,38,30,20,-100,-100,-100,0,0,100,0.00,40.00,96,32,0,0.01
2013-3-2,45,36,29,-100,-100,-100,0,0,100,0.00,40.00,97,28,0,0.01
2013-3-3,43,38,34,-100,-100,-100,0,0,100,0.00,40.00,89,-74,0,0.01
2013-3-4,34,22,13,-100,-100,-100,0,0,100,0.00,40.00,104,90,0,0.00
2013-3-5,42,29,11,-100,-100,-100,0,0,100,0.00,40.00,95,2,0,0.01
2013-3-6,50,39,33,-100,-100,-100,0,0,100,0.00,40.00,66,17,0,0.01
2013-3-7,50,41,35,-100,-100,-100,0,0,100,0.00,40.00,71,6,0,0.00
2013-3-8,47,38,29,-100,-100,-100,0,0,100,0.00,40.00,110,15,0,0.00
2013-3-9,31,25,19,-100,-100,-100,0,0,100,0.00,40.00,115,-30,0,0.01
2013-3-10,33,25,18,-100,-100,-100,0,0,100,0.00,40.00,106,-42,0,0.01
2013-3-11,34,28,23,-100,-100,-100,0,0,100,0.00,40.00,113,42,0,0.02
2013-3-12,37,29,19,-100,-100,-100,0,0,100,0.00,40.00,113,27,0,0.02
2013-3-13,47,39,33,-100,-100,-100,0,0,100,0.00,40.00,87,-11,0,0.01
2013-3-14,52,44,37,-100,-100,-100,0,0,100,0.00,40.00,73,-19,0,0.00
2013-3-15,56,47,43,-100,-100,-100,0,0,100,0.00,40.00,65,47,0,0.01
2013-3-16,45,37,28,-100,-100,-100,0,0,100,0.00,40.00,105,-2,0,0.00
2013-3-17,40,32,20,-100,-100,-100,0,0,100,0.00,40.00,86,-19,0,0.00
2013-3-18,31,25,15,-100,-100,-100,0,0,100,0.00,40.00,81,-24,0,0.00
2013-3-19,36,29,16,-100,-100,-100,0,0,100,0.00,40.00,106,-10,0,0.01
2013-3-20,45,34,15,-100,-100,-100,0,0,100,0.00,40.00,99,-90,0,0.01
2013-3-21,38,31,22,-100,-100,-100,0,0,100,0.00,40.00,114,-40,0,0.01
2013-3-22,29,22,15,-100,-100,-100,0,0,100,0.00,40.00,108,-194,0,0.00
2013-3-23,16,11,3,-100,-100,-100,0,0,100,0.00,40.00,107,-28,0,0.01
2013-3-24,19,10,2,-100,-100,-100,0,0,100,0.00,40.00,108,-37,0,0.01
2013-3-25,29,18,7,-100,-100,-100,0,0,100,0.00,40.00,100,-159,0,0.00
2013-3-26,40,32,19,-100,-100,-100,0,0,100,0.00,40.00,99,-24,0,0.01
2013-3-27,46,36,25,-100,-100,-100,0,0,100,0.00,40.00,108,-142,0,0.00
2013-3-28,50,39,27,-100,-100,-100,0,0,100,0.00,40.00,104,-50,0,0.00
2013-3-29,50,42,32,-100,-100,-100,0,0,100,0.00,40.00,97,-9,0,0.00
2013-3-30,47,38,32,-100,-100,-100,0,0,100,0.00,40.00,114,-38,0,0.00
2013-3-31,54,40,31,-100,-100,-100,0,0,100,0.00,40.00,92,-72,0,0.01